Airfield :
LOGIN :

Register | Disclaimer

   EN    FR    IT 

 










Legend :    VFR   Marginal VFR   IFR   Intensive IFR   Very Intensive IFR
Visi :
Ceiling :
>= 8 km
>= 3000ft
5 to 8 km
1000 to 3000 ft
1500m to 5 km
500 to 1000 ft
800 to 1500m
200 to 500 ft
< 800m
< 200 ft
Symbols :   Thunderstorms  Fog  Heavy snow  Heavy precipitations  Wind > 20 kt
SIGMETs :     Misc.  Thunderstorms  Icing  Turbulence  Mountain Waves  Volcanic Ashes







- Airport Elevation : 49 ft
- IATA code : GLZ


EHGR - Gilze-Rijen Airbase

CURRENT METAR :
  • 170225Z AUTO 15005KT 7000 BR BKN014 OVC017 04/04 Q1012 GRN

EXPIRED METARs :
  • 170213Z AUTO 15006KT 6000 BR FEW013 OVC016 04/04 Q1012 WHT
  • 170209Z AUTO 15006KT 5000 BR BKN012 OVC016 04/04 Q1012 GRN
  • 170155Z AUTO 16006KT 4800 BR FEW004 OVC012 04/04 Q1012 GRN
  • 170143Z AUTO 16005KT 120V180 4300 BR FEW002 SCT003 OVC012 04/04 Q1012 YLO
  • 170125Z AUTO 15006KT 3700 BR SCT001 OVC002 04/04 Q1012 RED
  • 170055Z AUTO 16006KT 2600 BR FEW001 OVC002 03/03 Q1012 AMB
  • 170035Z AUTO 15006KT 2100 BR OVC001 03/03 Q1012 RED
  • 170025Z AUTO 16007KT 130V200 1700 BR OVC001 03/03 Q1012 RED
  • 162355Z AUTO 15005KT 1000 BR BKN001 OVC002 03/03 Q1012 RED

Expired Forecast.
No reported NOTAMs for that airfield.



MET'MAP, your aeronautical weather chart ! - Copyright ORBIFLY December 2007 - Disclaimer

ORBIFLY MET'MAP TEAM :

Programming & Development : Alexandra Zaïnal
Concept & Development : Baudouin d'Aumeries
Co-Development & Prog : Marc-Olivier Méhu
Technical & hardware support : Manuel Goepfert

Contact : metmap@orbifly.com




SOURCES & CREDITS :

   NOAA